KAWM

West Memphis Municipal Airport

West Memphis, Arkansas, USA
METAR KAWM 121853Z AUTO 20011KT 10SM BKN041 BKN049 OVC070 10/02 A3004 RMK AO2 SLP174 T01000022 $
Observed Flight Rules
Dec-12 @ 18:53 UTC (21 minutes ago) Visual Flight Rules
Wind Visibility Clouds
200° at 11 knots 10 miles
  • Broken at 4,100' AGL
  • Broken at 4,900' AGL
  • Overcast at 7,000' AGL
Temperatures Readings
Current 10°C / 50°F
Dewpoint 2°C / 36°F
Humidity 58%
Altimeter 30.04" Hg
Pressure 1017.4 hPa
Elevation 65
METAR KAWM 121853Z AUTO 20011KT 10SM BKN041 BKN049 OVC070 10/02 A3004 RMK AO2 SLP174 T01000022 $
Observed Flight Rules
Dec-12 @ 18:53 UTC
(21 minutes ago)
VFR
Wind Visibility
200° at 11 knots 10 miles
Clouds
  • Broken at 4,100' AGL
  • Broken at 4,900' AGL
  • Overcast at 7,000' AGL
Temperature Dewpoint
10°C / 50°F 2°C / 36°F
Humidity Altimeter Pressure
58% 30.04" Hg 1017.4 hPa